createdAt,value
2017-08-06T08:38:10.966Z,0.99
2017-08-06T08:39:10.946Z,0.99
2017-08-06T08:40:10.931Z,0.99
2017-08-06T08:41:11.940Z,0.99
2017-08-06T08:42:10.971Z,0.99
2017-08-06T08:43:10.976Z,0.99
2017-08-06T08:49:19.966Z,1005.63
2017-08-06T08:50:19.964Z,1005.60
2017-08-06T08:52:37.842Z,1005.58
2017-08-06T08:53:37.868Z,1005.69
2017-08-06T08:54:38.609Z,1005.67
2017-08-06T08:55:37.764Z,1005.67
2017-08-06T08:56:37.845Z,1005.62
2017-08-06T08:57:38.612Z,1005.73
2017-08-06T08:58:37.893Z,1005.61
2017-08-06T08:59:37.965Z,1005.64
2017-08-06T09:00:37.818Z,1005.55
2017-08-06T09:01:37.919Z,1005.59
2017-08-06T09:02:37.876Z,1005.69
2017-08-06T09:03:37.914Z,1005.63
2017-08-06T09:04:37.904Z,1005.66
2017-08-06T09:05:37.845Z,1005.69
2017-08-06T09:06:37.846Z,1005.66
2017-08-06T09:07:37.943Z,1005.64
2017-08-06T09:08:37.854Z,1005.74
2017-08-06T09:09:38.785Z,1005.74
2017-08-06T09:10:38.635Z,1005.64
2017-08-06T09:11:37.797Z,1005.64
2017-08-06T09:12:38.636Z,1005.69
2017-08-06T09:13:37.850Z,1005.74
2017-08-06T09:14:38.645Z,1005.64
2017-08-06T09:15:38.678Z,1005.65
2017-08-06T09:16:37.852Z,1005.63
2017-08-06T09:17:37.791Z,1005.67
2017-08-06T09:18:38.730Z,1005.74
2017-08-06T09:19:37.821Z,1005.61
2017-08-06T09:20:37.844Z,1005.59
2017-08-06T09:21:37.883Z,1005.56
2017-08-06T09:22:38.301Z,1005.53
2017-08-06T09:23:37.819Z,1005.61
2017-08-06T09:24:37.891Z,1005.54
2017-08-06T09:25:38.998Z,1005.56
2017-08-06T09:26:38.659Z,1005.47
2017-08-06T09:27:38.663Z,1005.50
2017-08-06T09:28:38.664Z,1005.64
2017-08-06T09:29:37.884Z,1005.44
2017-08-06T09:30:37.884Z,1005.55
2017-08-06T09:31:37.873Z,1005.43
2017-08-06T09:32:37.887Z,1005.50
2017-08-06T09:33:39.175Z,1005.55
2017-08-06T09:34:37.829Z,1005.48
2017-08-06T09:35:37.818Z,1005.50
2017-08-06T09:36:37.809Z,1005.38
2017-08-06T09:37:37.864Z,1005.42
2017-08-06T09:38:37.858Z,1005.51
2017-08-06T09:39:38.693Z,1005.42
2017-08-06T09:40:37.857Z,1005.44
2017-08-06T09:41:37.852Z,1005.44
2017-08-06T09:42:37.830Z,1005.47
2017-08-06T09:43:37.938Z,1005.63
2017-08-06T09:44:37.855Z,1005.38
2017-08-06T09:45:37.869Z,1005.44
2017-08-06T09:46:37.938Z,1005.51
2017-08-06T09:47:39.708Z,1005.49
2017-08-06T09:48:38.708Z,1005.54
2017-08-06T09:49:37.836Z,1005.47
2017-08-06T09:50:37.878Z,1005.33
2017-08-06T09:51:39.729Z,1005.39
2017-08-06T09:52:37.873Z,1005.37
2017-08-06T09:53:37.806Z,1005.30
2017-08-06T09:54:37.998Z,1005.44
2017-08-06T09:55:39.714Z,1005.37
2017-08-06T09:56:37.860Z,1005.36
2017-08-06T09:57:38.737Z,1005.35
2017-08-06T09:58:37.901Z,1005.39
2017-08-06T09:59:37.905Z,1005.46
2017-08-06T10:00:37.856Z,1005.41
2017-08-06T10:01:38.796Z,1005.46
2017-08-06T10:02:37.802Z,1005.39
2017-08-06T10:03:37.886Z,1005.37
2017-08-06T10:04:38.722Z,1005.47
2017-08-06T10:05:37.884Z,1005.31
2017-08-06T10:06:37.842Z,1005.35
2017-08-06T10:07:38.245Z,1005.28
2017-08-06T10:08:38.728Z,1005.29
2017-08-06T10:09:38.235Z,1005.34
2017-08-06T10:10:37.939Z,1005.31
2017-08-06T10:11:38.243Z,1005.27
2017-08-06T10:12:37.849Z,1005.27
2017-08-06T10:13:37.858Z,1005.29
2017-08-06T10:14:38.277Z,1005.36
2017-08-06T10:15:37.919Z,1005.33
2017-08-06T10:16:38.251Z,1005.26
2017-08-06T10:17:37.760Z,1005.34
2017-08-06T10:18:38.745Z,1005.19
2017-08-06T10:19:37.846Z,1005.30
2017-08-06T10:20:37.787Z,1005.30
2017-08-06T10:21:37.843Z,1005.28
2017-08-06T10:22:37.844Z,1005.27
2017-08-06T10:23:39.253Z,1005.26
2017-08-06T10:24:37.876Z,1005.31
2017-08-06T10:25:37.811Z,1005.21
2017-08-06T10:26:37.842Z,1005.23
2017-08-06T10:27:37.797Z,1005.28
2017-08-06T10:28:38.266Z,1005.22
2017-08-06T10:29:38.265Z,1005.27
2017-08-06T10:30:37.836Z,1005.24
2017-08-06T10:31:37.864Z,1005.26
2017-08-06T10:32:38.290Z,1005.18
2017-08-06T10:33:37.810Z,1005.14
2017-08-06T10:34:38.314Z,1005.17
2017-08-06T10:35:37.791Z,1005.27
2017-08-06T10:36:37.750Z,1005.23
2017-08-06T10:37:37.766Z,1005.17
2017-08-06T10:38:37.842Z,1005.21
2017-08-06T10:39:37.824Z,1005.16
2017-08-06T10:40:38.781Z,1005.30
2017-08-06T10:41:37.973Z,1005.15
2017-08-06T10:42:37.821Z,1005.18
2017-08-06T10:43:37.791Z,1005.12
2017-08-06T10:44:37.811Z,1005.08
2017-08-06T10:45:38.290Z,1005.18
2017-08-06T10:46:37.819Z,1005.16
2017-08-06T10:47:37.841Z,1005.15
2017-08-06T10:48:37.886Z,1005.10
2017-08-06T10:49:37.825Z,1005.11
2017-08-06T10:50:38.311Z,1005.25
2017-08-06T10:51:38.313Z,1005.07
2017-08-06T10:52:37.749Z,1005.07
2017-08-06T10:53:37.862Z,1005.17
2017-08-06T10:54:37.787Z,1005.13
2017-08-06T10:55:37.828Z,1005.09
2017-08-06T10:56:37.916Z,1004.97
2017-08-06T10:57:38.067Z,1005.06
2017-08-06T10:58:38.342Z,1004.97
2017-08-06T10:59:37.784Z,1004.98
2017-08-06T11:00:37.994Z,1005.14
2017-08-06T11:01:38.816Z,1004.98
2017-08-06T11:02:37.794Z,1005.01
2017-08-06T11:03:37.802Z,1005.06
2017-08-06T11:04:37.911Z,1005.07
2017-08-06T11:05:37.856Z,1005.17
2017-08-06T11:06:37.938Z,1005.06
2017-08-06T11:07:37.746Z,1004.97
2017-08-06T11:08:37.791Z,1004.96
2017-08-06T11:09:38.332Z,1005.04
2017-08-06T11:10:37.863Z,1005.18
2017-08-06T11:11:38.350Z,1005.04
2017-08-06T11:12:37.778Z,1005.04
2017-08-06T11:13:37.720Z,1005.07
2017-08-06T11:14:37.917Z,1005.09
2017-08-06T11:15:38.339Z,1005.04
2017-08-06T11:16:37.841Z,1005.07
2017-08-06T11:17:38.373Z,1004.95
2017-08-06T11:18:37.727Z,1005.00
2017-08-06T11:19:37.744Z,1005.00
2017-08-06T11:20:37.870Z,1005.02
2017-08-06T11:21:37.926Z,1005.08
2017-08-06T11:22:37.730Z,1005.02
2017-08-06T11:23:37.824Z,1005.00
2017-08-06T11:24:37.844Z,1005.05
2017-08-06T11:25:38.356Z,1005.00
2017-08-06T11:26:38.378Z,1005.05
2017-08-06T11:27:38.872Z,1004.98
2017-08-06T11:28:38.860Z,1004.93
2017-08-06T11:29:37.777Z,1004.92
2017-08-06T11:30:37.841Z,1004.96
2017-08-06T11:31:39.365Z,1005.00
2017-08-06T11:32:37.953Z,1004.98
2017-08-06T11:33:37.764Z,1004.89
2017-08-06T11:34:37.861Z,1004.97
2017-08-06T11:35:38.874Z,1004.91
2017-08-06T11:36:37.902Z,1005.03
2017-08-06T11:37:37.872Z,1004.88
2017-08-06T11:38:37.857Z,1004.82
2017-08-06T11:39:37.862Z,1004.84
2017-08-06T11:40:38.383Z,1004.92
2017-08-06T11:41:37.782Z,1005.01
2017-08-06T11:42:37.722Z,1004.86
2017-08-06T11:43:37.815Z,1004.92
2017-08-06T11:44:37.898Z,1004.85
2017-08-06T11:45:37.780Z,1004.89
2017-08-06T11:46:37.759Z,1004.97
2017-08-06T11:47:37.904Z,1004.84
2017-08-06T11:48:37.762Z,1004.87
2017-08-06T11:49:37.840Z,1004.90
2017-08-06T11:50:37.843Z,1004.82
2017-08-06T11:51:37.812Z,1005.01
2017-08-06T11:52:38.426Z,1004.85
2017-08-06T11:53:38.403Z,1004.84
2017-08-06T11:54:37.797Z,1004.88
2017-08-06T11:55:38.524Z,1004.86
2017-08-06T11:56:37.819Z,1004.91
2017-08-06T11:57:37.714Z,1004.95
2017-08-06T11:58:38.410Z,1004.91
2017-08-06T11:59:38.418Z,1004.94
2017-08-06T12:00:37.743Z,1004.86
2017-08-06T12:01:37.823Z,1004.89
2017-08-06T12:02:37.771Z,1005.01
2017-08-06T12:03:38.537Z,1004.88
2017-08-06T12:04:38.424Z,1004.81
2017-08-06T12:05:38.426Z,1004.84
2017-08-06T12:06:37.812Z,1004.79
2017-08-06T12:07:37.717Z,1004.93
2017-08-06T12:08:37.821Z,1004.84
2017-08-06T12:09:37.734Z,1004.88
2017-08-06T12:10:37.799Z,1004.86
2017-08-06T12:11:37.824Z,1004.86
2017-08-06T12:12:37.712Z,1004.86
2017-08-06T12:13:37.842Z,1004.91
2017-08-06T12:14:38.507Z,1004.83
2017-08-06T12:15:39.945Z,1004.81
2017-08-06T12:16:38.122Z,1004.83
2017-08-06T12:17:37.802Z,1004.88
2017-08-06T12:18:38.505Z,1004.82
2017-08-06T12:19:37.796Z,1004.83
2017-08-06T12:20:37.789Z,1004.84
2017-08-06T12:21:38.095Z,1004.83
2017-08-06T12:22:38.452Z,1004.93
2017-08-06T12:23:38.452Z,1004.88
2017-08-06T12:24:38.459Z,1004.83
2017-08-06T12:25:37.716Z,1004.90
2017-08-06T12:26:38.497Z,1004.81
2017-08-06T12:27:37.722Z,1004.91
2017-08-06T12:28:37.772Z,1004.81
2017-08-06T12:29:37.830Z,1004.83
2017-08-06T12:30:37.748Z,1004.89
2017-08-06T12:31:38.167Z,1004.83
2017-08-06T12:32:38.492Z,1004.80
2017-08-06T12:33:38.468Z,1004.83
2017-08-06T12:34:37.911Z,1004.81
2017-08-06T12:35:38.616Z,1004.80
2017-08-06T12:36:38.480Z,1004.88
2017-08-06T12:37:37.803Z,1004.98
2017-08-06T12:38:37.785Z,1004.86
2017-08-06T12:39:37.798Z,1004.91
2017-08-06T12:40:37.745Z,1004.88
2017-08-06T12:41:37.862Z,1004.91
2017-08-06T12:42:37.760Z,1004.88
2017-08-06T12:43:37.897Z,1005.00
2017-08-06T12:44:37.748Z,1004.91
2017-08-06T12:45:37.848Z,1004.91
2017-08-06T12:46:38.491Z,1004.89
2017-08-06T12:47:37.695Z,1004.86
2017-08-06T12:48:37.737Z,1004.87
2017-08-06T12:49:37.854Z,1004.81
2017-08-06T12:50:37.744Z,1004.85
2017-08-06T12:51:37.728Z,1004.85
2017-08-06T12:52:38.500Z,1004.87
2017-08-06T12:53:39.070Z,1004.96
2017-08-06T12:54:38.511Z,1004.90
2017-08-06T12:55:37.772Z,1004.86
2017-08-06T12:56:37.779Z,1004.77
2017-08-06T12:57:37.739Z,1004.81
2017-08-06T12:58:37.787Z,1004.92
2017-08-06T12:59:39.514Z,1004.81
2017-08-06T13:00:38.514Z,1004.83
2017-08-06T13:01:37.729Z,1004.83
2017-08-06T13:02:37.821Z,1004.86
2017-08-06T13:03:37.755Z,1004.96
2017-08-06T13:04:37.782Z,1004.82
2017-08-06T13:05:37.761Z,1004.86
2017-08-06T13:06:37.785Z,1004.80
2017-08-06T13:07:37.760Z,1004.86
2017-08-06T13:08:37.739Z,1004.89
2017-08-06T13:09:37.782Z,1004.90
2017-08-06T13:10:38.568Z,1004.90
2017-08-06T13:11:39.032Z,1004.92
2017-08-06T13:12:37.749Z,1004.86
2017-08-06T13:13:38.541Z,1004.92
2017-08-06T13:14:38.537Z,1004.79
2017-08-06T13:15:37.795Z,1004.86
2017-08-06T13:16:39.039Z,1004.79
2017-08-06T13:17:37.823Z,1004.82
2017-08-06T13:18:37.747Z,1004.86
2017-08-06T13:19:37.828Z,1004.81
2017-08-06T13:20:37.700Z,1004.72
2017-08-06T13:21:37.742Z,1004.80
2017-08-06T13:22:37.770Z,1004.78
2017-08-06T13:23:39.593Z,1004.80
2017-08-06T13:24:37.826Z,1004.85
2017-08-06T13:25:37.713Z,1004.76
2017-08-06T13:26:38.557Z,1004.77
2017-08-06T13:27:37.735Z,1004.72
2017-08-06T13:28:37.701Z,1004.72
2017-08-06T13:29:37.747Z,1004.84
2017-08-06T13:30:37.730Z,1004.67
2017-08-06T13:31:37.763Z,1004.74
2017-08-06T13:32:37.762Z,1004.67
2017-08-06T13:33:39.571Z,1004.69
2017-08-06T13:34:37.807Z,1004.77
2017-08-06T13:35:38.575Z,1004.77
2017-08-06T13:36:37.909Z,1004.69
2017-08-06T13:37:39.605Z,1004.68
2017-08-06T13:38:37.793Z,1004.73
2017-08-06T13:39:37.705Z,1004.70
2017-08-06T13:40:37.855Z,1004.62
2017-08-06T13:41:37.836Z,1004.66
2017-08-06T13:42:37.790Z,1004.61
2017-08-06T13:43:37.811Z,1004.62
2017-08-06T13:44:37.720Z,1004.55
2017-08-06T13:45:37.756Z,1004.55
2017-08-06T13:46:38.662Z,1004.58
2017-08-06T13:47:39.592Z,1004.61
2017-08-06T13:48:37.790Z,1004.60
2017-08-06T13:49:37.742Z,1004.71
2017-08-06T13:50:37.751Z,1004.62
2017-08-06T13:51:37.756Z,1004.65
2017-08-06T13:52:37.744Z,1004.64
2017-08-06T13:53:37.897Z,1004.70
2017-08-06T13:54:37.689Z,1004.80
2017-08-06T13:55:38.607Z,1004.65
2017-08-06T13:56:38.612Z,1004.68
2017-08-06T13:57:37.711Z,1004.68
2017-08-06T13:58:37.749Z,1004.65
2017-08-06T13:59:39.133Z,1004.66
2017-08-06T14:00:38.611Z,1004.43
2017-08-06T14:01:38.114Z,1004.44
2017-08-06T14:02:37.734Z,1004.54
2017-08-06T14:03:37.805Z,1004.61
2017-08-06T14:04:38.634Z,1004.61
2017-08-06T14:05:38.622Z,1004.70
2017-08-06T14:06:37.700Z,1004.58
2017-08-06T14:07:37.735Z,1004.66
2017-08-06T14:08:37.680Z,1004.65
2017-08-06T14:09:37.736Z,1004.62
2017-08-06T14:10:37.717Z,1004.65
2017-08-06T14:11:37.682Z,1004.54
2017-08-06T14:12:38.134Z,1004.54
2017-08-06T14:13:37.660Z,1004.64
2017-08-06T14:14:37.749Z,1004.69
2017-08-06T14:15:37.725Z,1004.77
2017-08-06T14:16:37.797Z,1004.67
2017-08-06T14:17:38.157Z,1004.58
2017-08-06T14:18:37.728Z,1004.66
2017-08-06T14:19:37.888Z,1004.69
2017-08-06T14:20:37.677Z,1004.75
2017-08-06T14:21:37.761Z,1004.62
2017-08-06T14:22:37.792Z,1004.61
2017-08-06T14:23:38.152Z,1004.54
2017-08-06T14:24:37.748Z,1004.66
2017-08-06T14:25:38.154Z,1004.76
2017-08-06T14:26:37.800Z,1004.61
2017-08-06T14:27:38.158Z,1004.62
2017-08-06T14:28:37.705Z,1004.63
2017-08-06T14:29:38.067Z,1004.70
2017-08-06T14:30:38.166Z,1004.76
2017-08-06T14:31:37.752Z,1004.68
2017-08-06T14:32:37.718Z,1004.66
2017-08-06T14:33:37.751Z,1004.66
2017-08-06T14:34:37.757Z,1004.63
2017-08-06T14:35:37.752Z,1004.77
2017-08-06T14:36:38.378Z,1004.71
2017-08-06T14:37:37.886Z,1004.75
2017-08-06T14:38:38.176Z,1004.68
2017-08-06T14:39:38.182Z,1004.73
2017-08-06T14:40:37.714Z,1004.82
2017-08-06T14:41:37.845Z,1004.75
2017-08-06T14:42:37.666Z,1004.74
2017-08-06T14:43:37.722Z,1004.67
2017-08-06T14:44:37.755Z,1004.70
2017-08-06T14:45:38.187Z,1004.82
2017-08-06T14:46:37.761Z,1004.73
2017-08-06T14:47:37.662Z,1004.75
2017-08-06T14:48:38.192Z,1004.80
2017-08-06T14:49:37.697Z,1004.80
2017-08-06T14:50:37.660Z,1004.79
2017-08-06T14:51:38.224Z,1004.79
2017-08-06T14:52:37.784Z,1004.84
2017-08-06T14:53:38.382Z,1004.88
2017-08-06T14:54:37.921Z,1004.82
2017-08-06T14:55:37.745Z,1004.88
2017-08-06T14:56:38.224Z,1004.90
2017-08-06T14:57:37.717Z,1004.75
2017-08-06T14:58:37.672Z,1004.80
2017-08-06T14:59:37.853Z,1004.84
2017-08-06T15:00:37.754Z,1004.80
2017-08-06T15:01:37.659Z,1004.87
2017-08-06T15:02:37.664Z,1004.76
2017-08-06T15:03:37.656Z,1004.80
2017-08-06T15:04:37.702Z,1004.69
2017-08-06T15:05:38.261Z,1004.76
2017-08-06T15:06:37.749Z,1004.83
2017-08-06T15:07:37.705Z,1004.77
2017-08-06T15:08:37.704Z,1004.77
2017-08-06T15:09:37.678Z,1004.73
2017-08-06T15:10:37.714Z,1004.69
2017-08-06T15:11:38.254Z,1004.70
2017-08-06T15:12:38.231Z,1004.72
2017-08-06T15:13:38.734Z,1004.74
2017-08-06T15:14:37.622Z,1004.78
2017-08-06T15:15:37.720Z,1004.80
2017-08-06T15:16:38.238Z,1004.92
2017-08-06T15:17:37.789Z,1004.77
2017-08-06T15:18:38.245Z,1004.77
2017-08-06T15:19:37.603Z,1004.76
2017-08-06T15:20:37.628Z,1004.82
2017-08-06T15:21:38.254Z,1004.83
2017-08-06T15:22:37.756Z,1004.72
2017-08-06T15:23:37.727Z,1004.69
2017-08-06T15:24:38.751Z,1004.74
2017-08-06T15:25:38.753Z,1004.70
2017-08-06T15:26:37.701Z,1004.79
2017-08-06T15:27:37.716Z,1004.77
2017-08-06T15:28:39.260Z,1004.78
2017-08-06T15:29:38.293Z,1004.74
2017-08-06T15:30:37.685Z,1004.65
2017-08-06T15:31:38.266Z,1004.70
2017-08-06T15:32:37.638Z,1004.78
2017-08-06T15:33:37.781Z,1004.74
2017-08-06T15:34:37.711Z,1004.69
2017-08-06T15:35:37.745Z,1004.70
2017-08-06T15:36:38.278Z,1004.67
2017-08-06T15:37:37.659Z,1004.77
2017-08-06T15:38:38.279Z,1004.68
2017-08-06T15:39:38.277Z,1004.65
2017-08-06T15:40:37.680Z,1004.61
2017-08-06T15:41:37.781Z,1004.65
2017-08-06T15:42:37.717Z,1004.61
2017-08-06T15:43:37.684Z,1004.64
2017-08-06T15:44:37.707Z,1004.66
2017-08-06T15:45:37.688Z,1004.68
2017-08-06T15:46:38.289Z,1004.67
2017-08-06T15:47:38.293Z,1004.72
2017-08-06T15:48:37.817Z,1004.66
2017-08-06T15:49:37.695Z,1004.66
2017-08-06T15:50:37.672Z,1004.58
2017-08-06T15:51:38.004Z,1004.68
2017-08-06T15:52:37.675Z,1004.77
2017-08-06T15:53:37.680Z,1004.68
2017-08-06T15:54:38.303Z,1004.69
2017-08-06T15:55:37.619Z,1004.68
2017-08-06T15:56:38.777Z,1004.66
2017-08-06T15:57:37.593Z,1004.73
2017-08-06T15:58:38.322Z,1004.65
2017-08-06T15:59:38.312Z,1004.71
2017-08-06T16:00:37.755Z,1004.65
2017-08-06T16:01:37.671Z,1004.65
2017-08-06T16:02:37.691Z,1004.71
2017-08-06T16:03:38.339Z,1004.63
2017-08-06T16:04:38.332Z,1004.65
2017-08-06T16:05:39.332Z,1004.78
2017-08-06T16:06:37.693Z,1004.67
2017-08-06T16:07:38.336Z,1004.72
2017-08-06T16:08:37.890Z,1004.67
2017-08-06T16:09:37.660Z,1004.70
2017-08-06T16:10:38.335Z,1004.70
2017-08-06T16:11:37.669Z,1004.76
2017-08-06T16:12:37.717Z,1004.64
2017-08-06T16:13:38.336Z,1004.70
2017-08-06T16:14:38.357Z,1004.64
2017-08-06T16:15:37.681Z,1004.65
2017-08-06T16:16:37.690Z,1004.67
2017-08-06T16:17:37.981Z,1004.67
2017-08-06T16:18:37.681Z,1004.69
2017-08-06T16:19:38.373Z,1004.60
2017-08-06T16:20:38.349Z,1004.70
2017-08-06T16:21:37.751Z,1004.66
2017-08-06T16:22:38.358Z,1004.68
2017-08-06T16:23:37.779Z,1004.68
2017-08-06T16:24:37.644Z,1004.61
2017-08-06T16:25:37.678Z,1004.61
2017-08-06T16:26:38.359Z,1004.67
2017-08-06T16:27:38.362Z,1004.55
2017-08-06T16:28:37.630Z,1004.68
2017-08-06T16:29:38.373Z,1004.64
2017-08-06T16:30:37.694Z,1004.61
2017-08-06T16:31:37.757Z,1004.67
2017-08-06T16:32:37.656Z,1004.64
2017-08-06T16:33:37.691Z,1004.74
2017-08-06T16:34:37.765Z,1004.73
2017-08-06T16:35:38.375Z,1004.65
2017-08-06T16:36:37.657Z,1004.64
2017-08-06T16:37:37.744Z,1004.71
2017-08-06T16:38:38.379Z,1004.77
2017-08-06T16:39:38.383Z,1004.68
2017-08-06T16:40:37.637Z,1004.67
2017-08-06T16:41:37.706Z,1004.57
2017-08-06T16:42:37.641Z,1004.66
2017-08-06T16:43:38.391Z,1004.66
2017-08-06T16:44:37.713Z,1004.68
2017-08-06T16:45:38.543Z,1004.67
2017-08-06T16:46:37.759Z,1004.61
2017-08-06T16:47:38.395Z,1004.66
2017-08-06T16:48:37.678Z,1004.70
2017-08-06T16:49:37.749Z,1004.63
2017-08-06T16:50:39.403Z,1004.68
2017-08-06T16:51:37.647Z,1004.57
2017-08-06T16:52:37.652Z,1004.64
2017-08-06T16:53:38.412Z,1004.65
2017-08-06T16:54:38.406Z,1004.59
2017-08-06T16:55:37.721Z,1004.59
2017-08-06T16:56:38.417Z,1004.57
2017-08-06T16:57:37.615Z,1004.60
2017-08-06T16:58:37.672Z,1004.56
2017-08-06T16:59:37.693Z,1004.64
2017-08-06T17:00:38.509Z,1004.52
2017-08-06T17:01:37.583Z,1004.57
2017-08-06T17:02:37.640Z,1004.55
2017-08-06T17:03:37.660Z,1004.60
2017-08-06T17:04:38.548Z,1004.75
2017-08-06T17:05:38.549Z,1004.62
2017-08-06T17:06:37.683Z,1004.64
2017-08-06T17:07:37.629Z,1004.64
2017-08-06T17:08:37.742Z,1004.61
2017-08-06T17:09:37.594Z,1004.66
2017-08-06T17:10:37.618Z,1004.61
2017-08-06T17:11:38.435Z,1004.59
2017-08-06T17:12:37.660Z,1004.65
2017-08-06T17:13:37.733Z,1004.59
2017-08-06T17:14:37.652Z,1004.71
2017-08-06T17:15:37.688Z,1004.60
2017-08-06T17:16:39.443Z,1004.63
2017-08-06T17:17:37.624Z,1004.60
2017-08-06T17:18:37.671Z,1004.65
2017-08-06T17:19:38.452Z,1004.73
2017-08-06T17:20:38.455Z,1004.64
2017-08-06T17:21:37.579Z,1004.67
2017-08-06T17:22:37.620Z,1004.64
2017-08-06T17:23:37.630Z,1004.73
2017-08-06T17:24:38.459Z,1004.68
2017-08-06T17:25:37.603Z,1004.66
2017-08-06T17:26:37.732Z,1004.72
2017-08-06T17:27:37.651Z,1004.71
2017-08-06T17:28:38.465Z,1004.65
2017-08-06T17:29:37.634Z,1004.76
2017-08-06T17:30:39.485Z,1004.68
2017-08-06T17:31:38.983Z,1004.60
2017-08-06T17:32:37.635Z,1004.72
2017-08-06T17:33:37.752Z,1004.68
2017-08-06T17:34:37.635Z,1004.84
2017-08-06T17:35:37.648Z,1004.73
2017-08-06T17:36:37.622Z,1004.74
2017-08-06T17:37:37.632Z,1004.73
2017-08-06T17:38:37.698Z,1004.74
2017-08-06T17:39:37.663Z,1004.76
2017-08-06T17:40:37.727Z,1004.87
2017-08-06T17:41:37.740Z,1004.75
2017-08-06T17:42:37.654Z,1004.74
2017-08-06T17:43:38.523Z,1004.72
2017-08-06T17:44:37.723Z,1004.66
2017-08-06T17:45:37.640Z,1004.81
2017-08-06T17:46:37.723Z,1004.69
2017-08-06T17:47:37.567Z,1004.76
2017-08-06T17:48:37.730Z,1004.75
2017-08-06T17:49:40.517Z,1004.71
2017-08-06T17:50:37.652Z,1004.79
2017-08-06T17:51:37.600Z,1004.74
2017-08-06T17:52:37.622Z,1004.77
2017-08-06T17:53:37.651Z,1004.74
2017-08-06T17:54:37.654Z,1004.74
2017-08-06T17:55:37.718Z,1004.80
2017-08-06T17:56:38.512Z,1004.75
2017-08-06T17:57:37.650Z,1004.73
2017-08-06T17:58:37.615Z,1004.70
2017-08-06T17:59:37.666Z,1004.69
2017-08-06T18:00:37.664Z,1004.89
2017-08-06T18:01:38.520Z,1004.70
2017-08-06T18:02:38.025Z,1004.71
2017-08-06T18:03:37.683Z,1004.72
2017-08-06T18:04:37.706Z,1004.78
2017-08-06T18:05:37.619Z,1004.79
2017-08-06T18:06:37.649Z,1004.77
2017-08-06T18:07:38.030Z,1004.77
2017-08-06T18:08:37.619Z,1004.72
2017-08-06T18:09:37.594Z,1004.81
2017-08-06T18:10:37.563Z,1004.80
2017-08-06T18:11:38.036Z,1004.73
2017-08-06T18:12:37.592Z,1004.76
2017-08-06T18:13:37.613Z,1004.75
2017-08-06T18:14:38.042Z,1004.74
2017-08-06T18:15:37.598Z,1004.76
2017-08-06T18:16:37.544Z,1004.64
2017-08-06T18:17:37.677Z,1004.73
2017-08-06T18:18:37.622Z,1004.75
2017-08-06T18:19:37.725Z,1004.76
2017-08-06T18:20:37.571Z,1004.73
2017-08-06T18:21:37.619Z,1004.77
2017-08-06T18:22:37.578Z,1004.71
2017-08-06T18:23:37.651Z,1004.77
2017-08-06T18:24:38.060Z,1004.75
2017-08-06T18:25:38.071Z,1004.77
2017-08-06T18:26:38.062Z,1004.88
2017-08-06T18:27:37.646Z,1004.72
2017-08-06T18:28:38.069Z,1004.74
2017-08-06T18:29:37.626Z,1004.78
2017-08-06T18:30:38.233Z,1004.82
2017-08-06T18:31:37.813Z,1004.88
2017-08-06T18:32:37.656Z,1004.79
2017-08-06T18:33:38.073Z,1004.86
2017-08-06T18:34:37.745Z,1004.77
2017-08-06T18:35:37.644Z,1004.85
2017-08-06T18:36:37.622Z,1004.94
2017-08-06T18:37:37.539Z,1004.81
2017-08-06T18:38:37.594Z,1004.86
2017-08-06T18:39:38.084Z,1004.89
2017-08-06T18:40:38.085Z,1004.88
2017-08-06T18:41:37.580Z,1004.96
2017-08-06T18:42:37.724Z,1004.97
2017-08-06T18:43:37.663Z,1004.93
2017-08-06T18:44:37.639Z,1004.96
2017-08-06T18:45:37.637Z,1004.92
2017-08-06T18:46:38.104Z,1004.90
2017-08-06T18:47:37.580Z,1004.94
2017-08-06T18:48:37.698Z,1004.91
2017-08-06T18:49:38.104Z,1004.91
2017-08-06T18:50:37.681Z,1004.90
2017-08-06T18:51:38.109Z,1004.94
2017-08-06T18:52:38.105Z,1004.88
2017-08-06T18:53:37.633Z,1004.90
2017-08-06T18:54:37.622Z,1004.84
2017-08-06T18:55:37.658Z,1004.88
2017-08-06T18:56:37.587Z,1004.95
2017-08-06T18:57:37.605Z,1004.84
2017-08-06T18:58:37.595Z,1004.86
2017-08-06T18:59:38.117Z,1004.87
2017-08-06T19:00:38.119Z,1004.82
2017-08-06T19:01:38.125Z,1004.93
2017-08-06T19:02:38.124Z,1004.88
2017-08-06T19:03:38.135Z,1004.88
2017-08-06T19:04:38.125Z,1004.86
2017-08-06T19:05:37.780Z,1004.78
2017-08-06T19:06:37.601Z,1004.89
2017-08-06T19:07:38.131Z,1004.88
2017-08-06T19:08:38.656Z,1004.76
2017-08-06T19:09:37.747Z,1004.77
2017-08-06T19:10:37.673Z,1004.88
2017-08-06T19:11:37.636Z,1004.82
2017-08-06T19:12:37.594Z,1004.89
2017-08-06T19:13:37.509Z,1004.86
2017-08-06T19:14:39.142Z,1004.86
2017-08-06T19:15:37.609Z,1004.86
2017-08-06T19:16:38.323Z,1004.88
2017-08-06T19:17:38.149Z,1004.90
2017-08-06T19:18:37.753Z,1004.85
2017-08-06T19:19:38.156Z,1004.87
2017-08-06T19:20:37.614Z,1004.87
2017-08-06T19:21:38.154Z,1004.86
2017-08-06T19:22:37.594Z,1004.99
2017-08-06T19:23:37.595Z,1004.86
2017-08-06T19:24:37.623Z,1004.89
2017-08-06T19:25:37.560Z,1004.91
2017-08-06T19:26:37.649Z,1004.88
2017-08-06T19:27:38.167Z,1005.01
2017-08-06T19:28:37.601Z,1005.01
2017-08-06T19:29:38.689Z,1005.00
2017-08-06T19:30:38.182Z,1004.97
2017-08-06T19:31:37.701Z,1004.97
2017-08-06T19:32:37.636Z,1005.14
2017-08-06T19:33:37.553Z,1005.04
2017-08-06T19:34:38.213Z,1005.07
2017-08-06T19:35:37.575Z,1004.94
2017-08-06T19:36:37.685Z,1005.02
2017-08-06T19:37:37.523Z,1005.10
2017-08-06T19:38:37.568Z,1004.99
2017-08-06T19:39:37.660Z,1005.02
2017-08-06T19:40:37.616Z,1005.04
2017-08-06T19:41:37.643Z,1004.92
2017-08-06T19:42:38.189Z,1005.05
2017-08-06T19:43:37.776Z,1004.97
2017-08-06T19:44:39.218Z,1005.05
2017-08-06T19:45:37.695Z,1005.04
2017-08-06T19:46:37.624Z,1005.01
2017-08-06T19:47:38.610Z,1005.06
2017-08-06T19:48:37.673Z,1005.13
2017-08-06T19:49:37.642Z,1005.09
2017-08-06T19:50:37.538Z,1005.14
2017-08-06T19:51:38.212Z,1005.11
2017-08-06T19:52:37.686Z,1005.07
2017-08-06T19:53:38.211Z,1005.14
2017-08-06T19:54:38.212Z,1005.04
2017-08-06T19:55:37.670Z,1005.05
2017-08-06T19:56:37.577Z,1005.07
2017-08-06T19:57:37.640Z,1005.08
2017-08-06T19:58:37.732Z,1005.13
2017-08-06T19:59:37.639Z,1005.09
2017-08-06T20:00:38.305Z,1005.09
2017-08-06T20:01:38.220Z,1005.13
2017-08-06T20:02:37.559Z,1005.06
2017-08-06T20:03:37.568Z,1005.17
2017-08-06T20:04:38.226Z,1005.09
2017-08-06T20:05:37.603Z,1005.06
2017-08-06T20:06:37.599Z,1005.15
2017-08-06T20:07:37.637Z,1005.16
2017-08-06T20:08:37.532Z,1005.20
2017-08-06T20:09:37.595Z,1005.01
2017-08-06T20:10:37.620Z,1005.12
2017-08-06T20:11:37.522Z,1005.08
2017-08-06T20:12:37.531Z,1005.05
2017-08-06T20:13:37.559Z,1005.23
2017-08-06T20:14:37.766Z,1005.08
2017-08-06T20:15:37.725Z,1005.10
2017-08-06T20:16:37.585Z,1005.10
2017-08-06T20:17:37.661Z,1005.11
2017-08-06T20:18:37.551Z,1005.25
2017-08-06T20:19:37.584Z,1005.07
2017-08-06T20:20:37.574Z,1005.09
2017-08-06T20:21:37.491Z,1005.10
2017-08-06T20:22:37.539Z,1005.03
2017-08-06T20:23:38.264Z,1005.25
2017-08-06T20:24:37.607Z,1005.16
2017-08-06T20:25:38.260Z,1005.07
2017-08-06T20:26:37.561Z,1005.16
2017-08-06T20:27:38.274Z,1005.13
2017-08-06T20:28:37.598Z,1005.18
2017-08-06T20:29:37.571Z,1005.17
2017-08-06T20:30:38.269Z,1005.04
2017-08-06T20:31:37.526Z,1005.12
2017-08-06T20:32:37.572Z,1005.14
2017-08-06T20:33:37.639Z,1005.16
2017-08-06T20:34:38.276Z,1005.25
2017-08-06T20:35:37.621Z,1005.11
2017-08-06T20:36:37.585Z,1005.14
2017-08-06T20:37:37.546Z,1005.15
2017-08-06T20:38:38.286Z,1005.18
2017-08-06T20:39:37.534Z,1005.26
2017-08-06T20:40:37.634Z,1005.19
2017-08-06T20:41:38.286Z,1005.17
2017-08-06T20:42:37.616Z,1005.16
2017-08-06T20:43:37.603Z,1005.14
2017-08-06T20:44:37.704Z,1005.22
2017-08-06T20:45:37.621Z,1005.13
2017-08-06T20:46:37.690Z,1005.18
2017-08-06T20:47:37.534Z,1005.14
2017-08-06T20:48:37.603Z,1005.17
2017-08-06T20:49:37.610Z,1005.28
2017-08-06T20:50:38.311Z,1005.15